createdAt,value
2022-10-29T19:42:07.191Z,20.46
2022-10-29T19:43:08.697Z,20.45
2022-10-29T19:44:10.217Z,20.43
2022-10-29T19:45:11.675Z,20.41
2022-10-29T19:46:14.137Z,20.42
2022-10-29T19:47:15.620Z,20.41
2022-10-29T19:48:17.104Z,20.41
2022-10-29T19:49:18.568Z,20.42
2022-10-29T19:50:20.065Z,20.42
2022-10-29T19:51:21.704Z,20.41
2022-10-29T19:52:23.279Z,20.40
2022-10-29T19:53:24.949Z,20.39
2022-10-29T19:54:26.407Z,20.40
2022-10-29T19:55:27.984Z,20.39
2022-10-29T19:56:30.589Z,20.36
2022-10-29T19:57:32.227Z,20.34
2022-10-29T19:58:33.850Z,20.35
2022-10-29T19:59:35.345Z,20.35
2022-10-29T20:00:37.146Z,20.35
2022-10-29T20:01:40.365Z,20.34
2022-10-29T20:02:41.941Z,20.37
2022-10-29T20:03:43.689Z,20.38
2022-10-29T20:04:45.209Z,20.39
2022-10-29T20:05:46.794Z,20.39
2022-10-29T20:06:48.796Z,20.40
2022-10-29T20:07:53.530Z,20.39
2022-10-29T20:08:55.077Z,20.38
2022-10-29T20:09:56.630Z,20.37
2022-10-29T20:10:58.818Z,20.38
2022-10-29T20:12:03.708Z,20.38
2022-10-29T20:13:05.230Z,20.36
2022-10-29T20:15:45.569Z,20.36
2022-10-29T20:16:47.231Z,20.35
2022-10-29T20:17:48.691Z,20.34
2022-10-29T20:18:50.304Z,20.34
2022-10-29T20:19:51.740Z,20.32
2022-10-29T20:20:54.435Z,20.29
2022-10-29T20:21:56.119Z,20.30
2022-10-29T20:22:59.462Z,20.29
2022-10-29T20:24:01.518Z,20.26
2022-10-29T20:25:03.097Z,20.27
2022-10-29T20:26:04.569Z,20.27
2022-10-29T20:27:06.160Z,20.27
2022-10-29T20:28:08.011Z,20.26
2022-10-29T20:29:09.544Z,20.19
2022-10-29T20:30:11.376Z,20.19
2022-10-29T20:31:23.875Z,20.20
2022-10-29T20:32:25.382Z,20.21
2022-10-29T20:33:26.877Z,20.23
2022-10-29T20:34:28.363Z,20.22
2022-10-29T20:35:29.849Z,20.23
2022-10-29T20:36:32.028Z,20.23
2022-10-29T20:37:33.786Z,20.24
2022-10-29T20:38:35.292Z,20.25
2022-10-29T20:39:36.846Z,20.25
2022-10-29T20:40:38.407Z,20.24
2022-10-29T20:41:43.499Z,20.23
2022-10-29T20:42:45.063Z,20.22
2022-10-29T20:43:47.269Z,20.22
2022-10-29T20:44:48.808Z,20.22
2022-10-29T20:45:50.371Z,20.20
2022-10-29T20:46:51.920Z,20.18
2022-10-29T20:47:53.482Z,20.17
2022-10-29T20:48:55.000Z,20.16
2022-10-29T20:49:56.464Z,20.15
2022-10-29T20:50:58.072Z,20.12
2022-10-29T20:51:59.716Z,20.11
2022-10-29T20:53:01.344Z,20.10
2022-10-29T20:54:04.457Z,20.09
2022-10-29T20:55:07.836Z,20.10
2022-10-29T20:56:13.140Z,20.10
2022-10-29T20:57:17.673Z,20.11
2022-10-29T20:58:19.596Z,20.10
2022-10-29T20:59:21.941Z,20.10
2022-10-29T21:00:23.677Z,20.11
2022-10-29T21:01:25.814Z,20.11
2022-10-29T21:02:27.630Z,20.11
2022-10-29T21:03:29.217Z,20.11
2022-10-29T21:04:30.836Z,20.11
2022-10-29T21:05:32.301Z,20.12
2022-10-29T21:06:33.796Z,20.13
2022-10-29T21:07:35.248Z,20.14
2022-10-29T21:08:36.815Z,20.13
2022-10-29T21:09:38.254Z,20.15
2022-10-29T21:10:39.754Z,20.15
2022-10-29T21:11:41.375Z,20.15
2022-10-29T21:12:42.884Z,20.14
2022-10-29T21:13:44.412Z,20.15
2022-10-29T21:14:45.959Z,20.14
2022-10-29T21:15:47.406Z,20.14
2022-10-29T21:16:48.910Z,20.14
2022-10-29T21:17:50.425Z,20.14
2022-10-29T21:18:52.456Z,20.14
2022-10-29T21:19:53.967Z,20.14
2022-10-29T21:20:55.438Z,20.14
2022-10-29T21:21:57.134Z,20.14
2022-10-29T21:22:59.065Z,20.14
2022-10-29T21:24:00.856Z,20.12
2022-10-29T21:25:02.292Z,20.13
2022-10-29T21:26:04.516Z,20.12
2022-10-29T21:27:05.979Z,20.13
2022-10-29T21:28:07.458Z,20.13
2022-10-29T21:29:08.985Z,20.13
2022-10-29T21:30:10.810Z,20.14
2022-10-29T21:31:12.336Z,20.13
2022-10-29T21:32:16.924Z,20.14
2022-10-29T21:33:18.865Z,20.13
2022-10-29T21:34:20.348Z,20.13
2022-10-29T21:35:21.843Z,20.13
2022-10-29T21:36:23.448Z,20.14
2022-10-29T21:37:24.910Z,20.14
2022-10-29T21:38:28.249Z,20.14
2022-10-29T21:39:29.912Z,20.15
2022-10-29T21:40:31.448Z,20.14
2022-10-29T21:41:32.876Z,20.13
2022-10-29T21:42:34.358Z,20.13
2022-10-29T21:43:35.872Z,20.14
2022-10-29T21:44:37.437Z,20.14
2022-10-29T21:45:39.214Z,20.13
2022-10-29T21:46:40.658Z,20.13
2022-10-29T21:47:42.162Z,20.13
2022-10-29T21:48:43.630Z,20.12
2022-10-29T21:49:51.779Z,20.12
2022-10-29T21:51:00.876Z,20.10
2022-10-29T21:52:02.362Z,20.09
2022-10-29T21:53:04.240Z,20.08
2022-10-29T21:54:05.862Z,20.08
2022-10-29T21:55:07.577Z,20.08
2022-10-29T21:56:10.060Z,20.08
2022-10-29T21:57:11.557Z,20.08
2022-10-29T21:58:12.988Z,20.08
2022-10-29T21:59:14.500Z,20.06
2022-10-29T22:00:16.229Z,20.04
2022-10-29T22:01:17.790Z,20.04
2022-10-29T22:02:19.555Z,20.03
2022-10-29T22:03:21.066Z,20.04
2022-10-29T22:04:22.550Z,20.03
2022-10-29T22:05:24.006Z,20.05
2022-10-29T22:06:28.648Z,20.04
2022-10-29T22:07:30.115Z,20.03
2022-10-29T22:08:31.606Z,20.03
2022-10-29T22:09:33.420Z,20.04
2022-10-29T22:10:34.999Z,20.03
2022-10-29T22:11:36.483Z,20.02
2022-10-29T22:12:37.930Z,20.03
2022-10-29T22:13:39.498Z,20.04
2022-10-29T22:14:40.999Z,20.03
2022-10-29T22:15:44.481Z,20.01
2022-10-29T22:16:45.983Z,20.01
2022-10-29T22:17:47.445Z,20.01
2022-10-29T22:18:49.965Z,20.01
2022-10-29T22:19:51.827Z,20.00
2022-10-29T22:21:06.537Z,19.99
2022-10-29T22:22:08.091Z,19.98
2022-10-29T22:23:09.607Z,19.97
2022-10-29T22:24:11.144Z,19.96
2022-10-29T22:25:12.601Z,19.96
2022-10-29T22:26:14.605Z,19.96
2022-10-29T22:27:16.044Z,19.97
2022-10-29T22:28:17.549Z,19.96
2022-10-29T22:29:19.085Z,19.96
2022-10-29T22:30:20.565Z,19.96
2022-10-29T22:31:22.323Z,19.96
2022-10-29T22:32:23.806Z,19.94
2022-10-29T22:33:25.240Z,19.95
2022-10-29T22:34:26.779Z,19.94
2022-10-29T22:35:28.206Z,19.93
2022-10-29T22:36:31.849Z,19.93
2022-10-29T22:37:33.323Z,19.92
2022-10-29T22:38:34.860Z,19.92
2022-10-29T22:39:36.365Z,19.92
2022-10-29T22:40:40.961Z,19.91
2022-10-29T22:41:42.394Z,19.91
2022-10-29T22:42:43.876Z,19.91
2022-10-29T22:43:45.338Z,19.91
2022-10-29T22:44:46.825Z,19.91
2022-10-29T22:45:48.345Z,19.90
2022-10-29T22:46:49.801Z,19.89
2022-10-29T22:47:53.407Z,19.89
2022-10-29T22:48:54.880Z,19.89
2022-10-29T22:49:59.009Z,19.88
2022-10-29T22:51:01.648Z,19.88
2022-10-29T22:52:03.136Z,19.87
2022-10-29T22:53:04.644Z,19.87
2022-10-29T22:54:06.098Z,19.86
2022-10-29T22:55:07.833Z,19.85
2022-10-29T22:56:19.929Z,19.85
2022-10-29T22:57:21.367Z,19.83
2022-10-29T22:58:22.935Z,19.83
2022-10-29T22:59:24.499Z,19.82
2022-10-29T23:00:25.980Z,19.82
2022-10-29T23:01:28.351Z,19.81
2022-10-29T23:02:30.195Z,19.80
2022-10-29T23:03:31.808Z,19.79
2022-10-29T23:04:33.299Z,19.79
2022-10-29T23:05:34.763Z,19.80
2022-10-29T23:06:36.879Z,19.79
2022-10-29T23:07:38.477Z,19.78
2022-10-29T23:08:39.957Z,19.78
2022-10-29T23:09:41.511Z,19.76
2022-10-29T23:10:43.022Z,19.76
2022-10-29T23:11:44.514Z,19.76
2022-10-29T23:12:46.009Z,19.75
2022-10-29T23:13:52.141Z,19.74
2022-10-29T23:14:53.715Z,19.74
2022-10-29T23:15:55.196Z,19.72
2022-10-29T23:16:56.841Z,19.73
2022-10-29T23:17:58.591Z,19.71
2022-10-29T23:19:01.475Z,19.71
2022-10-29T23:20:03.225Z,19.71
2022-10-29T23:21:05.389Z,19.71
2022-10-29T23:22:07.166Z,19.69
2022-10-29T23:23:08.730Z,19.70
2022-10-29T23:24:10.224Z,19.68
2022-10-29T23:25:11.762Z,19.68
2022-10-29T23:26:14.935Z,19.67
2022-10-29T23:27:16.426Z,19.67
2022-10-29T23:28:17.945Z,19.66
2022-10-29T23:29:19.380Z,19.66
2022-10-29T23:30:20.880Z,19.65
2022-10-29T23:31:23.004Z,19.64
2022-10-29T23:32:24.502Z,19.64
2022-10-29T23:33:25.964Z,19.55
2022-10-29T23:34:27.479Z,19.63
2022-10-29T23:35:29.093Z,19.63
2022-10-29T23:36:30.662Z,19.60
2022-10-29T23:37:32.171Z,19.60
2022-10-29T23:38:33.857Z,19.57
2022-10-29T23:39:35.336Z,19.57
2022-10-29T23:40:36.931Z,19.55
2022-10-29T23:41:38.361Z,19.55
2022-10-29T23:42:39.864Z,19.55
2022-10-29T23:43:41.341Z,19.51
2022-10-29T23:44:42.794Z,19.50
2022-10-29T23:45:44.326Z,19.49
2022-10-29T23:46:45.789Z,19.48
2022-10-29T23:47:47.273Z,19.47
2022-10-29T23:48:48.745Z,19.47
2022-10-29T23:49:50.484Z,19.46
2022-10-29T23:50:52.146Z,19.45
2022-10-29T23:51:53.643Z,19.44
2022-10-29T23:52:55.180Z,19.41
2022-10-29T23:53:57.714Z,19.40
2022-10-29T23:54:59.355Z,19.37
2022-10-29T23:56:00.884Z,19.37
2022-10-29T23:57:02.393Z,19.36
2022-10-29T23:58:04.013Z,19.33
2022-10-29T23:59:05.473Z,19.32
